Thunder radar more information blitzortung!


Radar de pluja more information rain snow radar


Visita la nostra xarxa de llocs de meteo:

Template documentation
and downloads

And another site



No particular awareness of the weather is required.    There are no Weather-warnings

Pagina Historial Weather Underground text

Diari Resum Agost 3, 2017 Unitats:  Imperial    Mètric   Tant
« Previous Dia
SegĂźent Dia »
Diari Setmana Mensual Anual Personalitzada
  Maxima: Minima: Media:
Temperatura: TemperatureC °F 23.4 °F 31 °F
Punt de rosada: DewpointC °F 11.9 °F 16.3 °F
Humitat: Humidity % 29 % 42 %
Wind Speed: WindSpeedKMH mph 0.0 mph 6.3 mph
RĂ fegues de vent: WindSpeedGustKMH mph - -
Vent:- - SE
Pression baro: PressurehPa in 1010.7 in -
Precipitacions: 0.0 in    
Historical Graphs
 
 
Dades de taula per Agost 3, 2017
Temps Temperatura Punt de rosada Pression baro Vent Wind Speed RĂ fegues de vent Humitat Rainfall Rate (Hourly)
TemperatureC °F DewpointC °F PressurehPa in Calm     Humidity % HourlyPrecipMM in
00:01 27.6 °F 15.6 °F 1014.8 in SW 3.7 mph 3.7 mph 48 % 0.0 in
00:05 24.9 °F 15.5 °F 1014.8 in Calm   3.2 mph 56 % 0.0 in
00:15 24.6 °F 15.2 °F 1014.8 in WSW 3.2 mph 3.2 mph 56 % 0.0 in
00:25 24.4 °F 15.3 °F 1014.8 in Calm   4.8 mph 57 % 0.0 in
00:35 24.4 °F 15.3 °F 1014.8 in SW 1.6 mph 4.8 mph 57 % 0.0 in
00:45 24.3 °F 15.5 °F 1014.8 in SW 1.6 mph 3.2 mph 58 % 0.0 in
00:55 24.2 °F 15.4 °F 1014.8 in Calm   3.2 mph 58 % 0.0 in
01:05 24.2 °F 15.4 °F 1014.8 in West 3.2 mph 4.8 mph 58 % 0.0 in
01:15 24.5 °F 15.7 °F 1014.8 in West 1.6 mph 3.2 mph 58 % 0.0 in
01:25 24.4 °F 15.9 °F 1015.8 in West 1.6 mph 3.2 mph 59 % 0.0 in
01:35 24.3 °F 15.8 °F 1015.8 in North 1.6 mph 1.6 mph 59 % 0.0 in
01:45 24.3 °F 15.8 °F 1015.8 in Calm   1.6 mph 59 % 0.0 in
01:55 24.0 °F 15.5 °F 1014.8 in Calm     59 % 0.0 in
02:05 24.0 °F 15.8 °F 1014.8 in Calm   1.6 mph 60 % 0.0 in
02:15 23.6 °F 15.6 °F 1014.8 in WNW 1.6 mph 3.2 mph 61 % 0.0 in
02:25 23.4 °F 15.4 °F 1014.8 in WSW 1.6 mph 3.2 mph 61 % 0.0 in
02:35 23.7 °F 15.7 °F 1014.8 in WSW 3.2 mph 3.2 mph 61 % 0.0 in
02:45 23.7 °F 15.7 °F 1014.8 in WSW 3.2 mph 4.8 mph 61 % 0.0 in
02:55 24.0 °F 16.0 °F 1013.8 in WSW 1.6 mph 3.2 mph 61 % 0.0 in
03:05 24.4 °F 16.1 °F 1013.8 in WSW 3.2 mph 4.8 mph 60 % 0.0 in
03:15 24.9 °F 16.6 °F 1013.8 in SW 1.6 mph 3.2 mph 60 % 0.0 in
03:25 25.2 °F 16.3 °F 1013.8 in SW 3.2 mph 4.8 mph 58 % 0.0 in
03:35 25.5 °F 16.6 °F 1013.8 in SW 1.6 mph 3.2 mph 58 % 0.0 in
03:45 26.4 °F 17.4 °F 1013.8 in West 1.6 mph 3.2 mph 58 % 0.0 in
03:55 27.2 °F 17.4 °F 1013.8 in NNE 4.8 mph 6.4 mph 55 % 0.0 in
04:05 27.4 °F 17.6 °F 1013.8 in NNW 1.6 mph 6.4 mph 55 % 0.0 in
04:15 28.1 °F 17.9 °F 1013.8 in NW 1.6 mph 4.8 mph 54 % 0.0 in
04:25 28.6 °F 18.1 °F 1013.8 in NW 1.6 mph 4.8 mph 53 % 0.0 in
04:35 28.9 °F 18.3 °F 1013.8 in WNW 3.2 mph 3.2 mph 53 % 0.0 in
04:45 29.6 °F 18.1 °F 1013.8 in WNW 1.6 mph 6.4 mph 50 % 0.0 in
04:55 30.2 °F 18.3 °F 1013.8 in West 1.6 mph 3.2 mph 49 % 0.0 in
05:05 30.6 °F 18.7 °F 1013.8 in NNE 1.6 mph 6.4 mph 49 % 0.0 in
05:15 31.1 °F 18.4 °F 1013.8 in NNE 1.6 mph 4.8 mph 47 % 0.0 in
05:25 31.5 °F 18.8 °F 1013.8 in NNE 3.2 mph 8.0 mph 47 % 0.0 in
05:35 32.5 °F 19.1 °F 1013.8 in NNE 1.6 mph 3.2 mph 45 % 0.0 in
05:45 33.0 °F 18.8 °F 1013.8 in NNE 4.8 mph 4.8 mph 43 % 0.0 in
10:54 33.5 °F 18.8 °F 1013.8 in WSW 5.6 mph   42 % 0.0 in
10:59 34.1 °F 19.4 °F 1013.8 in North 3.7 mph 3.7 mph 42 % 0.0 in
11:04 33.9 °F 18.8 °F 1013.8 in North 5.6 mph 5.6 mph 41 % 0.0 in
11:09 34.0 °F 18.9 °F 1013.8 in NE 3.9 mph 3.9 mph 41 % 0.0 in
11:14 34.0 °F 18.9 °F 1013.8 in ENE 1.9 mph 1.9 mph 41 % 0.0 in
11:19 34.6 °F 19.4 °F 1013.8 in North 3.7 mph 3.7 mph 41 % 0.0 in
11:24 35.1 °F 19.1 °F 1013.8 in NNW 2.3 mph   39 % 0.0 in
11:29 35.2 °F 19.2 °F 1013.8 in NW 2.3 mph 2.3 mph 39 % 0.0 in
11:34 35.2 °F 18.7 °F 1013.8 in ENE 3.7 mph 3.7 mph 38 % 0.0 in
11:39 35.8 °F 18.8 °F 1013.8 in ESE 3.7 mph 3.7 mph 37 % 0.0 in
11:44 35.9 °F 18.5 °F 1013.8 in ESE 3.7 mph 3.7 mph 36 % 0.0 in
11:49 36.2 °F 19.2 °F 1013.8 in SW 3.7 mph 3.7 mph 37 % 0.0 in
11:54 36.0 °F 18.1 °F 1013.8 in ESE 5.6 mph 5.6 mph 35 % 0.0 in
11:59 36.2 °F 18.8 °F 1013.8 in South 7.4 mph 7.4 mph 36 % 0.0 in
12:04 37.0 °F 18.6 °F 1013.8 in South 1.9 mph 1.9 mph 34 % 0.0 in
12:09 36.9 °F 18.4 °F 1013.8 in SW 5.6 mph 5.6 mph 34 % 0.0 in
12:14 36.4 °F 17.1 °F 1013.8 in ESE 9.3 mph 9.3 mph 32 % 0.0 in
12:19 36.7 °F 17.3 °F 1012.8 in ENE 5.6 mph 5.6 mph 32 % 0.0 in
12:24 36.8 °F 16.4 °F 1012.8 in ESE 9.3 mph 9.3 mph 30 % 0.0 in
12:29 36.8 °F 16.4 °F 1012.8 in East 7.4 mph 7.4 mph 30 % 0.0 in
12:34 37.4 °F 16.9 °F 1013.8 in WSW 5.6 mph 5.6 mph 30 % 0.0 in
12:39 37.5 °F 16.4 °F 1013.8 in ENE 4.7 mph 4.7 mph 29 % 0.0 in
12:44 37.5 °F 16.4 °F 1013.8 in East 7.4 mph 7.4 mph 29 % 0.0 in
12:49 38.3 °F 17.1 °F 1013.8 in SSE 3.7 mph 3.7 mph 29 % 0.0 in
12:54 37.8 °F 17.2 °F 1013.8 in East 14.8 mph 14.8 mph 30 % 0.0 in
12:59 36.8 °F 18.8 °F 1013.8 in East 14.8 mph 14.8 mph 35 % 0.0 in
13:04 35.8 °F 18.4 °F 1013.8 in ENE 16.7 mph 16.7 mph 36 % 0.0 in
13:09 35.2 °F 18.7 °F 1013.8 in East 11.1 mph 11.1 mph 38 % 0.0 in
13:14 35.0 °F 19.4 °F 1013.8 in ESE 13.0 mph 13.0 mph 40 % 0.0 in
13:19 34.7 °F 19.9 °F 1012.8 in ESE 13.0 mph 13.0 mph 42 % 0.0 in
13:24 34.9 °F 20.1 °F 1012.8 in ESE 18.5 mph 18.5 mph 42 % 0.0 in
13:29 34.3 °F 19.9 °F 1012.8 in East 16.7 mph 16.7 mph 43 % 0.0 in
13:34 34.1 °F 20.5 °F 1013.8 in ENE 30.1 mph 30.1 mph 45 % 0.0 in
13:39 33.7 °F 20.5 °F 1013.8 in SE 24.5 mph 24.5 mph 46 % 0.0 in
13:44 33.4 °F 20.2 °F 1013.8 in ESE 20.4 mph 20.4 mph 46 % 0.0 in
13:49 33.5 °F 20.7 °F 1013.8 in ENE 13.0 mph 13.0 mph 47 % 0.0 in
13:54 33.2 °F 20.7 °F 1013.8 in East 14.8 mph 14.8 mph 48 % 0.0 in
13:59 32.9 °F 20.8 °F 1013.8 in East 13.0 mph 13.0 mph 49 % 0.0 in
14:04 32.8 °F 21.0 °F 1013.8 in ESE 14.8 mph 14.8 mph 50 % 0.0 in
14:09 33.0 °F 20.9 °F 1013.8 in NE 22.2 mph 22.2 mph 49 % 0.0 in
14:14 32.1 °F 20.4 °F 1013.8 in ESE 18.5 mph 18.5 mph 50 % 0.0 in
14:19 31.7 °F 20.3 °F 1013.8 in ESE 25.9 mph 25.9 mph 51 % 0.0 in
14:24 31.9 °F 20.5 °F 1013.8 in NE 22.2 mph 22.2 mph 51 % 0.0 in
14:25 31.7 °F 20.3 °F 1013.8 in NNE 24.1 mph 24.1 mph 51 % 0.0 in
14:30 31.5 °F 20.4 °F 1013.8 in ENE 14.8 mph 14.8 mph 52 % 0.0 in
14:35 31.2 °F 20.2 °F 1013.8 in ENE 16.7 mph 16.7 mph 52 % 0.0 in
14:40 30.9 °F 20.5 °F 1013.8 in ESE 17.2 mph 17.2 mph 54 % 0.0 in
14:45 31.3 °F 20.9 °F 1013.8 in SSE 13.0 mph 13.0 mph 54 % 0.0 in
14:50 31.0 °F 20.6 °F 1012.8 in ENE 11.1 mph 11.1 mph 54 % 0.0 in
14:55 31.0 °F 20.6 °F 1012.8 in North 14.8 mph 14.8 mph 54 % 0.0 in
15:00 30.8 °F 20.7 °F 1012.8 in ENE 16.7 mph 16.7 mph 55 % 0.0 in
15:05 30.6 °F 20.6 °F 1013.8 in NE 13.0 mph 13.0 mph 55 % 0.0 in
15:10 30.6 °F 20.6 °F 1013.8 in ENE 13.0 mph 13.0 mph 55 % 0.0 in
15:15 30.5 °F 20.2 °F 1013.8 in NE 13.0 mph 13.0 mph 54 % 0.0 in
15:20 30.9 °F 20.5 °F 1013.8 in East 9.3 mph 10.8 mph 54 % 0.0 in
15:25 30.6 °F 19.6 °F 1013.8 in ESE 14.8 mph 14.8 mph 52 % 0.0 in
15:30 30.9 °F 18.9 °F 1013.8 in SE 20.4 mph 20.4 mph 49 % 0.0 in
15:35 31.1 °F 18.4 °F 1013.8 in ENE 20.4 mph 20.4 mph 47 % 0.0 in
15:36 31.1 °F 18.1 °F 1013.8 in East 20.4 mph 20.4 mph 46 % 0.0 in
15:41 31.6 °F 18.2 °F 1013.8 in East 9.5 mph 9.5 mph 45 % 0.0 in
15:46 32.0 °F 18.2 °F 1013.8 in ESE 9.3 mph 9.3 mph 44 % 0.0 in
15:51 32.1 °F 18.3 °F 1013.8 in ENE 13.0 mph 13.0 mph 44 % 0.0 in
15:56 32.2 °F 18.1 °F 1013.8 in ENE 18.0 mph 18.0 mph 43 % 0.0 in
16:01 32.6 °F 18.4 °F 1013.8 in East 13.0 mph 13.0 mph 43 % 0.0 in
16:06 32.5 °F 18.3 °F 1013.8 in South 16.7 mph 16.7 mph 43 % 0.0 in
16:11 32.2 °F 18.1 °F 1013.8 in SE 14.8 mph 14.8 mph 43 % 0.0 in
16:16 32.6 °F 18.0 °F 1013.8 in ESE 17.5 mph 17.5 mph 42 % 0.0 in
16:21 32.7 °F 18.1 °F 1013.8 in ENE 13.0 mph 13.0 mph 42 % 0.0 in
16:26 33.0 °F 17.6 °F 1013.8 in East 11.1 mph 11.1 mph 40 % 0.0 in
16:31 33.1 °F 17.7 °F 1013.8 in ENE 13.0 mph 13.0 mph 40 % 0.0 in
16:36 33.4 °F 17.2 °F 1013.8 in ESE 13.7 mph 13.7 mph 38 % 0.0 in
16:41 33.2 °F 17.4 °F 1013.8 in East 11.1 mph 11.1 mph 39 % 0.0 in
16:46 33.3 °F 17.1 °F 1013.8 in ESE 13.7 mph 13.7 mph 38 % 0.0 in
16:51 33.6 °F 17.3 °F 1013.8 in ESE 15.8 mph 15.8 mph 38 % 0.0 in
16:56 33.7 °F 17.4 °F 1013.8 in ESE 14.8 mph 14.8 mph 38 % 0.0 in
17:01 33.7 °F 17.8 °F 1012.8 in East 13.0 mph 13.0 mph 39 % 0.0 in
17:06 33.7 °F 17.0 °F 1012.8 in ESE 17.2 mph 17.2 mph 37 % 0.0 in
17:11 34.0 °F 17.7 °F 1012.8 in ESE 9.3 mph 9.3 mph 38 % 0.0 in
17:16 33.9 °F 17.6 °F 1011.7 in NNE 13.0 mph 13.0 mph 38 % 0.0 in
17:21 33.8 °F 17.5 °F 1011.7 in East 13.0 mph 13.0 mph 38 % 0.0 in
17:26 34.1 °F 17.8 °F 1011.7 in ESE 11.1 mph 11.1 mph 38 % 0.0 in
17:31 34.2 °F 17.8 °F 1012.8 in ESE 9.3 mph 9.3 mph 38 % 0.0 in
17:36 34.1 °F 17.8 °F 1012.8 in ENE 11.1 mph 11.1 mph 38 % 0.0 in
17:41 34.2 °F 17.8 °F 1012.8 in ENE 13.0 mph 13.0 mph 38 % 0.0 in
17:46 34.3 °F 17.5 °F 1012.8 in East 5.8 mph 5.8 mph 37 % 0.0 in
17:51 34.3 °F 17.5 °F 1012.8 in NE 9.0 mph 9.0 mph 37 % 0.0 in
17:56 34.2 °F 17.4 °F 1012.8 in ENE 14.0 mph 14.0 mph 37 % 0.0 in
18:01 34.2 °F 17.0 °F 1012.8 in East 13.0 mph 13.0 mph 36 % 0.0 in
18:06 34.2 °F 16.6 °F 1012.8 in ESE 15.6 mph 15.6 mph 35 % 0.0 in
18:11 34.2 °F 17.0 °F 1012.8 in ENE 9.3 mph 9.3 mph 36 % 0.0 in
18:16 34.4 °F 16.7 °F 1012.8 in ENE 9.3 mph 9.3 mph 35 % 0.0 in
18:21 34.6 °F 17.3 °F 1012.8 in ESE 12.2 mph 12.2 mph 36 % 0.0 in
18:26 34.6 °F 16.4 °F 1012.8 in NE 9.3 mph 9.3 mph 34 % 0.0 in
18:31 34.7 °F 17.0 °F 1011.7 in NW 3.9 mph 3.9 mph 35 % 0.0 in
18:36 34.9 °F 17.2 °F 1011.7 in East 4.2 mph   35 % 0.0 in
18:41 34.7 °F 17.0 °F 1011.7 in West 5.6 mph 5.6 mph 35 % 0.0 in
18:46 35.4 °F 16.7 °F 1011.7 in South 7.4 mph 7.4 mph 33 % 0.0 in
18:51 35.6 °F 15.9 °F 1011.7 in South 7.4 mph 7.4 mph 31 % 0.0 in
18:56 35.9 °F 16.1 °F 1011.7 in West 3.7 mph 3.7 mph 31 % 0.0 in
19:01 36.2 °F 15.9 °F 1011.7 in SW 1.9 mph 1.9 mph 30 % 0.0 in
19:06 35.8 °F 15.5 °F 1011.7 in SE 5.6 mph 5.6 mph 30 % 0.0 in
19:11 35.4 °F 15.2 °F 1011.7 in East 2.6 mph   30 % 0.0 in
19:21 34.6 °F 15.5 °F 1010.7 in ESE 7.4 mph 7.4 mph 32 % 0.0 in
19:25 28.4 °F 12.3 °F 1012.8 in NNE 1.6 mph 1.6 mph 37 % 0.0 in
19:26 34.4 °F 15.3 °F 1010.7 in ENE 11.1 mph 11.1 mph 32 % 0.0 in
19:31 34.4 °F 14.8 °F 1011.7 in South 5.6 mph 5.8 mph 31 % 0.0 in
19:35 28.0 °F 11.9 °F 1012.8 in NE 1.6 mph 3.2 mph 37 % 0.0 in
19:36 34.5 °F 15.4 °F 1011.7 in ESE 3.9 mph 3.9 mph 32 % 0.0 in
19:41 34.3 °F 15.2 °F 1011.7 in ESE 7.4 mph 7.4 mph 32 % 0.0 in
19:45 27.7 °F 12.1 °F 1012.8 in Calm   3.2 mph 38 % 0.0 in
19:46 34.1 °F 14.6 °F 1011.7 in ESE 13.0 mph 13.0 mph 31 % 0.0 in
19:51 34.0 °F 15.0 °F 1011.7 in ESE 12.2 mph 12.2 mph 32 % 0.0 in
19:55 27.4 °F 12.2 °F 1012.8 in ENE 1.6 mph 4.8 mph 39 % 0.0 in
19:56 33.9 °F 15.4 °F 1011.7 in ENE 5.6 mph 5.6 mph 33 % 0.0 in
20:01 33.8 °F 15.3 °F 1011.7 in ESE 7.4 mph 7.4 mph 33 % 0.0 in
20:05 27.0 °F 11.9 °F 1013.8 in Calm   3.2 mph 39 % 0.0 in
20:06 33.9 °F 15.4 °F 1011.7 in East 7.4 mph 7.4 mph 33 % 0.0 in
20:11 33.7 °F 15.2 °F 1011.7 in East 5.6 mph 5.6 mph 33 % 0.0 in
20:15 27.0 °F 12.2 °F 1013.8 in NE 1.6 mph 3.2 mph 40 % 0.0 in
20:16 33.6 °F 15.1 °F 1011.7 in East 3.7 mph 3.7 mph 33 % 0.0 in
20:21 33.6 °F 15.1 °F 1011.7 in ESE 3.7 mph 3.7 mph 33 % 0.0 in
20:25 26.8 °F 12.4 °F 1012.8 in NNE 3.2 mph 3.2 mph 41 % 0.0 in
20:26 33.7 °F 14.7 °F 1011.7 in Calm     32 % 0.0 in
20:32 33.7 °F 14.7 °F 1011.7 in Calm     32 % 0.0 in
20:35 26.7 °F 12.7 °F 1013.8 in NE 1.6 mph 3.2 mph 42 % 0.0 in
20:37 33.5 °F 14.6 °F 1011.7 in WNW 1.9 mph   32 % 0.0 in
20:42 33.5 °F 14.1 °F 1011.7 in WSW 3.7 mph 3.7 mph 31 % 0.0 in
20:45 26.5 °F 12.6 °F 1013.8 in ENE 1.6 mph 4.8 mph 42 % 0.0 in
20:47 33.5 °F 13.6 °F 1011.7 in Calm     30 % 0.0 in
20:52 33.4 °F 13.4 °F 1011.7 in Calm     30 % 0.0 in
20:55 26.2 °F 12.6 °F 1013.8 in Calm   3.2 mph 43 % 0.0 in
20:57 33.2 °F 13.3 °F 1011.7 in SW 2.3 mph 2.3 mph 30 % 0.0 in
21:02 33.1 °F 12.7 °F 1011.7 in Calm     29 % 0.0 in
21:05 26.0 °F 12.8 °F 1013.8 in ENE 3.2 mph 3.2 mph 44 % 0.0 in
21:07 33.0 °F 12.6 °F 1011.7 in Calm     29 % 0.0 in
21:12 32.8 °F 13.4 °F 1011.7 in WNW 3.2 mph   31 % 0.0 in
21:15 25.8 °F 12.6 °F 1013.8 in Calm     44 % 0.0 in
21:17 32.7 °F 12.8 °F 1011.7 in Calm     30 % 0.0 in
21:22 32.6 °F 12.8 °F 1011.7 in Calm     30 % 0.0 in
21:25 25.6 °F 13.8 °F 1013.8 in NE 1.6 mph 3.2 mph 48 % 0.0 in
21:27 32.4 °F 12.6 °F 1011.7 in Calm     30 % 0.0 in
21:32 32.2 °F 12.4 °F 1011.7 in North 1.9 mph 1.9 mph 30 % 0.0 in
21:35 25.4 °F 14.5 °F 1012.8 in NE 1.6 mph 3.2 mph 51 % 0.0 in
21:37 32.1 °F 12.8 °F 1011.7 in NNW 1.9 mph 1.9 mph 31 % 0.0 in
21:42 32.0 °F 12.3 °F 1011.7 in Calm     30 % 0.0 in
21:45 25.2 °F 14.9 °F 1012.8 in NE 1.6 mph 3.2 mph 53 % 0.0 in
21:47 31.9 °F 12.2 °F 1012.8 in Calm     30 % 0.0 in
21:52 31.8 °F 12.1 °F 1012.8 in Calm     30 % 0.0 in
21:55 25.0 °F 15.1 °F 1012.8 in ENE 3.2 mph 3.2 mph 54 % 0.0 in
21:57 31.8 °F 12.6 °F 1012.8 in NNW 1.9 mph   31 % 0.0 in
22:02 31.7 °F 12.5 °F 1012.8 in Calm     31 % 0.0 in
22:05 24.8 °F 15.4 °F 1012.8 in NNE 1.6 mph 4.8 mph 56 % 0.0 in
22:07 31.5 °F 12.3 °F 1012.8 in Calm     31 % 0.0 in
22:12 31.4 °F 12.7 °F 1012.8 in Calm     32 % 0.0 in
22:15 24.7 °F 16.2 °F 1012.8 in NNE 1.6 mph 3.2 mph 59 % 0.0 in
22:17 31.2 °F 12.6 °F 1012.8 in NNW 1.9 mph 2.3 mph 32 % 0.0 in
22:22 31.1 °F 12.4 °F 1012.8 in NNW 1.9 mph   32 % 0.0 in
22:25 24.5 °F 15.7 °F 1012.8 in NE 3.2 mph 3.2 mph 58 % 0.0 in
22:27 31.0 °F 12.4 °F 1012.8 in Calm     32 % 0.0 in
22:32 30.9 °F 12.8 °F 1012.8 in Calm     33 % 0.0 in
22:35 24.5 °F 15.9 °F 1012.8 in NNE 3.2 mph 3.2 mph 59 % 0.0 in
22:37 30.7 °F 12.6 °F 1012.8 in NNE 1.4 mph   33 % 0.0 in
22:42 30.6 °F 12.5 °F 1012.8 in NNE 2.3 mph 2.3 mph 33 % 0.0 in
22:45 24.3 °F 16.1 °F 1012.8 in Calm   3.2 mph 60 % 0.0 in
22:47 30.4 °F 12.3 °F 1012.8 in NNE 1.9 mph   33 % 0.0 in
22:52 30.3 °F 12.7 °F 1012.8 in NNE 1.9 mph   34 % 0.0 in
22:55 24.2 °F 16.2 °F 1012.8 in NE 1.6 mph 3.2 mph 61 % 0.0 in
22:57 30.2 °F 12.6 °F 1012.8 in NNE 1.9 mph   34 % 0.0 in
23:02 30.1 °F 12.5 °F 1012.8 in Calm     34 % 0.0 in
23:05 24.1 °F 16.1 °F 1012.8 in NE 3.2 mph 3.2 mph 61 % 0.0 in
23:07 30.0 °F 12.4 °F 1012.8 in Calm     34 % 0.0 in
23:12 30.0 °F 12.4 °F 1012.8 in Calm     34 % 0.0 in
23:15 24.0 °F 16.3 °F 1012.8 in Calm   3.2 mph 62 % 0.0 in
23:17 29.8 °F 12.7 °F 1012.8 in Calm     35 % 0.0 in
23:22 29.7 °F 12.6 °F 1012.8 in Calm     35 % 0.0 in
23:25 23.9 °F 16.4 °F 1013.8 in Calm     63 % 0.0 in
23:27 29.6 °F 12.5 °F 1012.8 in Calm     35 % 0.0 in
23:32 29.6 °F 12.5 °F 1012.8 in Calm     35 % 0.0 in
23:35 23.7 °F 16.5 °F 1013.8 in Calm   1.6 mph 64 % 0.0 in
23:37 29.5 °F 12.4 °F 1012.8 in Calm     35 % 0.0 in
23:42 29.5 °F 12.4 °F 1012.8 in Calm     35 % 0.0 in
23:45 23.5 °F 16.3 °F 1013.8 in Calm     64 % 0.0 in
23:47 29.5 °F 12.4 °F 1012.8 in Calm     35 % 0.0 in
23:52 29.4 °F 12.3 °F 1012.8 in Calm     35 % 0.0 in
23:55 23.4 °F 16.2 °F 1013.8 in Calm     64 % 0.0 in
23:57 29.3 °F 12.3 °F 1012.8 in Calm     35 % 0.0 in
Meteo Sesrovires
Elogis d' Weather Underground - 3.75 mb

Guio original per  Jim McMurry - jmcmurry@mwt.net Adaptat per a la plantilla per  Wim van der Kuil - Leuven-Template.eu

Trobareu la nostra informacio del temps tambe a:

Weather Underground

AWEKAS